Página principal
METAR-TAF:

METAR-TAF

Aeroportos :

Rabat, Marrocos

latitude: 34-03N, longitude: 006-46W, altura: 84 m

Observação actual do tempo

O boletim foi feito há 16 minutos, às 15:00 UTC
Vento 10 kt de nordeste, variando entre norte e es-nordeste
Temperatura 17°C
Humidade 52%
Pressão 1024 hPa
Visibilidade: 8000 m

METAR: GMME 161500Z 04010KT 010V070 8000 NSC 17/07 Q1024 NOSIG

Hora: 15:16 (15:16 UTC)

Previsão

O boletim foi feito há 4 horas e 16 minutos, às 11:00 UTC
Previsão válida de 16 às 12 UTC a 17 às 18 UTC
Vento 5 kt de es-nordeste
Visibilidade: 8000 m

TAF: GMME 161100Z 1612/1718 07005KT 8000 NSC

Observações e previsões do tempo de mais de 4000 aeroportos (mensagens METAR e TAF).

As estações disponíveis são os pontos amarelos e vermelhos sobre o mapa.

Mova o rato sobre o mapa para ver o nome da estação.

Depois clique no ponto para visualizar as observações e previsões meteorológicas.

Para alterar o mapa : clique nos botões verdes com uma cruz preta para aumentar o zoom; no botão verde com uma pitada de zoom; ou nas setas verdes para mapas adjacentes.


METAR-TAF: